createdAt,value
2023-05-19T00:01:10.436Z,94811.28
2023-05-19T00:03:36.918Z,94809.16
2023-05-19T00:06:04.177Z,94801.50
2023-05-19T00:08:31.695Z,94797.19
2023-05-19T00:10:59.289Z,94800.66
2023-05-19T00:13:25.779Z,94800.84
2023-05-19T00:15:52.473Z,94806.97
2023-05-19T00:18:20.048Z,94799.19
2023-05-19T00:20:46.643Z,94797.53
2023-05-19T00:23:13.238Z,94803.13
2023-05-19T00:25:39.723Z,94795.53
2023-05-19T00:28:07.408Z,94798.34
2023-05-19T00:30:34.130Z,94795.72
2023-05-19T00:33:01.616Z,94796.53
2023-05-19T00:35:28.100Z,94789.13
2023-05-19T00:37:54.743Z,94793.88
2023-05-19T00:40:22.351Z,94800.44
2023-05-19T00:42:48.815Z,94795.03
2023-05-19T00:45:16.524Z,94788.28
2023-05-19T00:47:43.095Z,94793.28
2023-05-19T00:50:09.551Z,94789.00
2023-05-19T00:52:36.269Z,94787.78
2023-05-19T00:55:02.711Z,94772.56
2023-05-19T00:57:29.451Z,94780.28
2023-05-19T00:59:57.043Z,94774.03
2023-05-19T01:02:24.786Z,94777.19
2023-05-19T01:04:51.356Z,94772.69
2023-05-19T01:07:18.785Z,94765.31
2023-05-19T01:09:45.224Z,94769.31
2023-05-19T01:12:11.999Z,94765.91
2023-05-19T01:14:38.583Z,94766.97
2023-05-19T01:17:06.152Z,94766.50
2023-05-19T01:19:32.722Z,94757.63
2023-05-19T01:21:59.465Z,94760.09
2023-05-19T01:24:26.990Z,94758.38
2023-05-19T01:26:55.662Z,94755.94
2023-05-19T01:29:23.181Z,94759.91
2023-05-19T01:31:49.781Z,94758.09
2023-05-19T01:34:16.351Z,94764.78
2023-05-19T01:36:42.800Z,94759.69
2023-05-19T01:39:09.285Z,94760.59
2023-05-19T01:41:35.796Z,94765.03
2023-05-19T01:44:02.246Z,94768.03
2023-05-19T01:46:28.761Z,94761.09
2023-05-19T01:48:55.911Z,94764.84
2023-05-19T01:51:23.514Z,94762.22
2023-05-19T01:53:51.094Z,94767.63
2023-05-19T01:56:17.597Z,94760.69
2023-05-19T01:58:44.078Z,94759.56
2023-05-19T02:01:10.657Z,94765.28
2023-05-19T02:03:37.439Z,94770.75
2023-05-19T02:06:03.932Z,94773.44
2023-05-19T02:08:30.630Z,94768.88
2023-05-19T02:10:57.215Z,94769.16
2023-05-19T02:13:23.655Z,94770.63
2023-05-19T02:15:50.458Z,94768.97
2023-05-19T02:18:18.026Z,94770.63
2023-05-19T02:20:45.564Z,94769.31
2023-05-19T02:23:12.159Z,94763.09
2023-05-19T02:25:38.760Z,94767.00
2023-05-19T02:28:05.275Z,94766.72
2023-05-19T02:30:32.281Z,94770.38
2023-05-19T02:32:59.619Z,94765.91
2023-05-19T02:35:27.113Z,94757.03
2023-05-19T02:37:53.583Z,94760.00
2023-05-19T02:40:20.282Z,94754.72
2023-05-19T02:42:46.740Z,94757.84
2023-05-19T02:45:13.483Z,94765.59
2023-05-19T02:47:40.152Z,94759.84
2023-05-19T02:50:07.675Z,94752.06
2023-05-19T02:52:35.237Z,94751.22
2023-05-19T02:55:01.819Z,94755.81
2023-05-19T02:57:29.403Z,94748.72
2023-05-19T02:59:56.008Z,94745.50
2023-05-19T03:02:24.641Z,94747.16
2023-05-19T03:04:51.165Z,94740.66
2023-05-19T03:07:18.762Z,94733.41
2023-05-19T03:09:45.375Z,94739.00
2023-05-19T03:12:13.986Z,94738.63
2023-05-19T03:14:40.500Z,94739.38
2023-05-19T03:17:07.191Z,94738.78
2023-05-19T03:19:34.746Z,94740.44
2023-05-19T03:22:01.336Z,94736.28
2023-05-19T03:24:27.931Z,94736.28
2023-05-19T03:26:55.520Z,94732.59
2023-05-19T03:29:22.134Z,94734.78
2023-05-19T03:31:51.694Z,94737.09
2023-05-19T03:34:18.143Z,94740.53
2023-05-19T03:36:44.600Z,94732.94
2023-05-19T03:39:11.455Z,94734.91
2023-05-19T03:41:38.070Z,94736.75
2023-05-19T03:44:06.676Z,94740.03
2023-05-19T03:46:33.554Z,94748.72
2023-05-19T03:49:00.864Z,94747.09
2023-05-19T03:51:28.464Z,94745.13
2023-05-19T03:53:54.998Z,94751.47
2023-05-19T03:56:21.429Z,94743.09
2023-05-19T03:58:51.246Z,94749.97
2023-05-19T04:01:18.068Z,94741.72
2023-05-19T04:03:45.468Z,94743.09
2023-05-19T04:06:13.015Z,94741.75
2023-05-19T04:08:39.576Z,94740.16
2023-05-19T04:11:06.419Z,94744.16
2023-05-19T04:13:32.925Z,94745.47
2023-05-19T04:15:59.399Z,94746.63
2023-05-19T04:18:27.593Z,94752.44
2023-05-19T04:20:55.447Z,94745.47
2023-05-19T04:23:21.895Z,94752.66
2023-05-19T04:25:48.333Z,94748.06
2023-05-19T04:28:14.792Z,94749.91
2023-05-19T04:30:41.269Z,94749.84
2023-05-19T04:33:07.864Z,94753.97
2023-05-19T04:35:34.496Z,94749.66
2023-05-19T04:38:01.708Z,94755.63
2023-05-19T04:40:29.251Z,94764.59
2023-05-19T04:42:56.863Z,94760.84
2023-05-19T04:45:23.492Z,94764.78
2023-05-19T04:47:51.116Z,94757.44
2023-05-19T04:50:18.656Z,94757.91
2023-05-19T04:52:46.231Z,94764.16
2023-05-19T04:55:12.831Z,94768.94
2023-05-19T04:57:39.275Z,94773.72
2023-05-19T05:00:06.001Z,94769.72
2023-05-19T05:02:32.630Z,94770.19
2023-05-19T05:04:59.239Z,94764.38
2023-05-19T05:07:25.825Z,94772.09
2023-05-19T05:09:53.454Z,94766.94
2023-05-19T05:12:20.025Z,94775.31
2023-05-19T05:14:48.641Z,94776.44
2023-05-19T05:17:15.107Z,94775.06
2023-05-19T05:19:41.563Z,94770.38
2023-05-19T05:22:08.455Z,94771.00
2023-05-19T05:24:35.047Z,94756.84
2023-05-19T05:27:01.741Z,94769.38
2023-05-19T05:29:28.721Z,94759.88
2023-05-19T05:31:55.802Z,94766.66
2023-05-19T05:34:23.382Z,94761.47
2023-05-19T05:36:49.979Z,94765.84
2023-05-19T05:39:18.577Z,94759.09
2023-05-19T05:41:45.011Z,94761.47
2023-05-19T05:44:11.488Z,94762.41
2023-05-19T05:46:38.172Z,94765.41
2023-05-19T05:49:04.702Z,94759.66
2023-05-19T05:51:31.151Z,94759.19
2023-05-19T05:53:57.647Z,94759.44
2023-05-19T05:56:25.275Z,94761.69
2023-05-19T05:58:51.704Z,94755.53
2023-05-19T06:01:18.201Z,94758.34
2023-05-19T06:03:44.777Z,94762.56
2023-05-19T06:06:11.323Z,94758.66
2023-05-19T06:08:37.807Z,94753.06
2023-05-19T06:11:04.257Z,94750.25
2023-05-19T06:13:30.829Z,94752.72
2023-05-19T06:15:58.435Z,94748.63
2023-05-19T06:18:26.011Z,94755.53
2023-05-19T06:20:52.462Z,94750.97
2023-05-19T06:23:18.992Z,94754.59
2023-05-19T06:25:45.832Z,94761.53
2023-05-19T06:28:14.430Z,94749.34
2023-05-19T06:30:40.911Z,94753.19
2023-05-19T06:33:07.423Z,94754.22
2023-05-19T06:35:33.936Z,94753.44
2023-05-19T06:38:00.409Z,94754.06
2023-05-19T06:40:26.895Z,94753.53
2023-05-19T06:42:53.360Z,94762.06
2023-05-19T06:45:19.801Z,94759.84
2023-05-19T06:47:46.341Z,94758.44
2023-05-19T06:50:12.876Z,94760.28
2023-05-19T06:52:39.390Z,94753.16
2023-05-19T06:55:05.958Z,94763.28
2023-05-19T06:57:32.529Z,94753.94
2023-05-19T06:59:58.965Z,94750.06
2023-05-19T07:02:25.732Z,94758.91
2023-05-19T07:04:53.305Z,94756.84
2023-05-19T07:07:19.895Z,94751.69
2023-05-19T07:09:48.472Z,94751.75
2023-05-19T07:12:14.954Z,94755.69
2023-05-19T07:14:41.424Z,94752.25
2023-05-19T07:17:07.878Z,94747.75
2023-05-19T07:19:34.338Z,94749.25
2023-05-19T07:22:00.799Z,94754.78
2023-05-19T07:24:27.258Z,94743.53
2023-05-19T07:26:53.739Z,94751.72
2023-05-19T07:29:21.233Z,94746.59
2023-05-19T07:31:47.743Z,94754.94
2023-05-19T07:34:14.275Z,94752.00
2023-05-19T07:36:40.985Z,94747.56
2023-05-19T07:39:07.513Z,94752.47
2023-05-19T07:41:36.274Z,94736.69
2023-05-19T07:44:02.937Z,94751.19
2023-05-19T07:46:29.497Z,94749.38
2023-05-19T07:48:57.051Z,94751.41
2023-05-19T07:51:23.505Z,94749.34
2023-05-19T07:53:50.043Z,94749.78
2023-05-19T07:56:16.484Z,94751.25
2023-05-19T07:58:43.438Z,94748.22
2023-05-19T08:01:10.045Z,94750.91
2023-05-19T08:03:36.608Z,94749.09
2023-05-19T08:06:04.222Z,94750.94
2023-05-19T08:08:30.795Z,94749.75
2023-05-19T08:10:57.261Z,94745.47
2023-05-19T08:13:23.717Z,94743.63
2023-05-19T08:15:50.219Z,94737.50
2023-05-19T08:18:17.145Z,94737.31
2023-05-19T08:20:43.740Z,94734.47
2023-05-19T08:23:10.326Z,94730.00
2023-05-19T08:25:36.807Z,94732.44
2023-05-19T08:28:03.298Z,94722.00
2023-05-19T08:30:29.763Z,94717.91
2023-05-19T08:32:56.209Z,94717.91
2023-05-19T08:35:22.782Z,94716.91
2023-05-19T08:37:49.233Z,94720.78
2023-05-19T08:40:15.705Z,94716.47
2023-05-19T08:42:42.536Z,94703.53
2023-05-19T08:45:08.971Z,94700.09
2023-05-19T08:47:35.507Z,94701.09
2023-05-19T08:50:02.009Z,94698.19
2023-05-19T08:52:28.485Z,94702.69
2023-05-19T08:54:54.932Z,94706.56
2023-05-19T08:57:21.398Z,94703.72
2023-05-19T08:59:47.843Z,94694.91
2023-05-19T09:02:14.317Z,94704.16
2023-05-19T09:04:41.499Z,94700.25
2023-05-19T09:07:08.044Z,94700.22
2023-05-19T09:09:34.490Z,94703.91
2023-05-19T09:12:00.972Z,94707.78
2023-05-19T09:14:27.433Z,94702.06
2023-05-19T09:16:53.933Z,94706.78
2023-05-19T09:19:20.481Z,94696.34
2023-05-19T09:21:46.955Z,94698.63
2023-05-19T09:24:14.130Z,94699.66
2023-05-19T09:26:40.616Z,94703.75
2023-05-19T09:29:07.096Z,94703.56
2023-05-19T09:31:33.538Z,94703.34
2023-05-19T09:33:59.985Z,94693.31
2023-05-19T09:36:26.452Z,94695.16
2023-05-19T09:38:53.621Z,94694.31
2023-05-19T09:41:20.071Z,94695.75
2023-05-19T09:43:46.676Z,94694.91
2023-05-19T09:46:14.616Z,94692.84
2023-05-19T09:48:41.408Z,94690.97
2023-05-19T09:51:08.045Z,94693.97
2023-05-19T09:53:35.172Z,94686.72
2023-05-19T09:56:01.753Z,94683.56
2023-05-19T09:58:28.256Z,94682.03
2023-05-19T10:00:54.750Z,94690.56
2023-05-19T10:03:21.219Z,94680.41
2023-05-19T10:05:47.683Z,94680.13
2023-05-19T10:08:14.122Z,94683.78
2023-05-19T10:10:40.587Z,94690.09
2023-05-19T10:13:07.169Z,94683.06
2023-05-19T10:15:40.858Z,94683.28
2023-05-19T10:18:13.284Z,94682.47
2023-05-19T10:20:40.242Z,94682.31
2023-05-19T10:23:06.794Z,94671.00
2023-05-19T10:25:33.339Z,94669.09
2023-05-19T10:27:59.961Z,94669.09
2023-05-19T10:30:26.434Z,94677.28
2023-05-19T10:32:52.946Z,94680.97
2023-05-19T10:35:19.467Z,94682.63
2023-05-19T10:37:46.832Z,94683.59
2023-05-19T10:40:13.427Z,94675.22
2023-05-19T10:42:39.872Z,94669.81
2023-05-19T10:45:06.380Z,94680.81
2023-05-19T10:47:33.238Z,94676.97
2023-05-19T10:50:01.811Z,94670.13
2023-05-19T10:52:28.281Z,94673.78
2023-05-19T10:54:55.057Z,94678.44
2023-05-19T10:57:21.552Z,94675.78
2023-05-19T10:59:48.007Z,94671.47
2023-05-19T11:02:14.565Z,94670.88
2023-05-19T11:04:41.103Z,94670.78
2023-05-19T11:07:07.558Z,94667.47
2023-05-19T11:09:39.929Z,94672.59
2023-05-19T11:12:06.885Z,94668.66
2023-05-19T11:14:33.754Z,94662.13
2023-05-19T11:17:00.360Z,94666.69
2023-05-19T11:19:26.925Z,94656.88
2023-05-19T11:21:53.415Z,94661.63
2023-05-19T11:24:19.871Z,94655.16
2023-05-19T11:26:46.660Z,94662.84
2023-05-19T11:29:13.264Z,94665.59
2023-05-19T11:31:39.705Z,94668.34
2023-05-19T11:34:06.183Z,94659.88
2023-05-19T11:36:32.630Z,94657.13
2023-05-19T11:38:59.611Z,94657.34
2023-05-19T11:41:26.198Z,94652.59
2023-05-19T11:43:52.775Z,94648.63
2023-05-19T11:46:19.420Z,94649.81
2023-05-19T11:48:47.082Z,94647.13
2023-05-19T11:51:13.934Z,94648.63
2023-05-19T11:53:42.151Z,94646.63
2023-05-19T11:56:08.614Z,94649.88
2023-05-19T11:58:35.042Z,94649.19
2023-05-19T12:01:01.473Z,94642.50
2023-05-19T12:03:28.627Z,94648.41
2023-05-19T12:05:55.357Z,94647.47
2023-05-19T12:08:21.885Z,94646.38
2023-05-19T12:10:48.340Z,94646.78
2023-05-19T12:13:14.804Z,94639.94
2023-05-19T12:15:41.278Z,94635.47
2023-05-19T12:18:07.932Z,94641.56
2023-05-19T12:20:34.435Z,94633.81
2023-05-19T12:23:01.005Z,94630.91
2023-05-19T12:25:27.563Z,94628.97
2023-05-19T12:27:55.986Z,94638.59
2023-05-19T12:30:22.997Z,94636.66
2023-05-19T12:32:51.553Z,94633.84
2023-05-19T12:35:18.003Z,94638.03
2023-05-19T12:37:44.507Z,94637.34
2023-05-19T12:40:10.982Z,94627.94
2023-05-19T12:42:38.924Z,94628.44
2023-05-19T12:45:05.550Z,94628.09
2023-05-19T12:47:33.183Z,94635.25
2023-05-19T12:49:59.700Z,94635.78
2023-05-19T12:52:26.181Z,94634.94
2023-05-19T12:54:52.673Z,94634.88
2023-05-19T12:57:19.176Z,94633.34
2023-05-19T12:59:47.118Z,94636.69
2023-05-19T13:02:13.792Z,94626.72
2023-05-19T13:04:40.319Z,94628.78
2023-05-19T13:07:06.744Z,94623.16
2023-05-19T13:09:33.211Z,94617.44
2023-05-19T13:11:59.630Z,94623.97
2023-05-19T13:14:26.082Z,94622.34
2023-05-19T13:16:52.606Z,94613.97
2023-05-19T13:19:25.090Z,94625.84
2023-05-19T13:21:52.335Z,94628.53
2023-05-19T13:24:18.865Z,94618.56
2023-05-19T13:26:45.367Z,94629.97
2023-05-19T13:29:11.799Z,94628.53
2023-05-19T13:31:38.272Z,94618.66
2023-05-19T13:34:05.458Z,94617.25
2023-05-19T13:36:31.931Z,94609.78
2023-05-19T13:38:58.422Z,94610.63
2023-05-19T13:41:24.889Z,94614.88
2023-05-19T13:43:51.399Z,94616.16
2023-05-19T13:46:19.240Z,94619.13
2023-05-19T13:48:47.061Z,94619.41
2023-05-19T13:51:13.517Z,94617.81
2023-05-19T13:53:39.974Z,94618.09
2023-05-19T13:56:06.420Z,94615.34
2023-05-19T13:58:32.842Z,94621.59
2023-05-19T14:00:59.293Z,94618.69
2023-05-19T14:03:25.893Z,94618.53
2023-05-19T14:05:52.389Z,94619.25
2023-05-19T14:08:18.856Z,94617.91
2023-05-19T14:10:45.341Z,94615.91
2023-05-19T14:13:31.617Z,94617.81
2023-05-19T14:15:58.261Z,94614.59
2023-05-19T14:18:25.109Z,94622.91
2023-05-19T14:20:51.687Z,94623.72
2023-05-19T14:23:18.277Z,94622.75
2023-05-19T14:25:44.752Z,94623.16
2023-05-19T14:28:11.448Z,94622.56
2023-05-19T14:30:37.915Z,94628.56
2023-05-19T14:33:04.682Z,94623.44
2023-05-19T14:35:31.186Z,94620.59
2023-05-19T14:37:57.619Z,94621.84
2023-05-19T14:40:24.060Z,94619.63
2023-05-19T14:42:51.004Z,94616.31
2023-05-19T14:45:17.451Z,94607.13
2023-05-19T14:47:44.304Z,94619.03
2023-05-19T14:50:11.833Z,94612.31
2023-05-19T14:52:38.320Z,94619.75
2023-05-19T14:55:05.197Z,94620.03
2023-05-19T14:57:32.582Z,94622.69
2023-05-19T14:59:59.069Z,94620.88
2023-05-19T15:02:27.431Z,94626.22
2023-05-19T15:04:55.154Z,94623.78
2023-05-19T15:07:21.609Z,94627.53
2023-05-19T15:09:48.070Z,94631.06
2023-05-19T15:12:14.545Z,94631.88
2023-05-19T15:14:41.004Z,94626.34
2023-05-19T15:17:08.473Z,94623.91
2023-05-19T15:19:35.942Z,94624.34
2023-05-19T15:22:02.453Z,94616.78
2023-05-19T15:24:29.024Z,94619.66
2023-05-19T15:26:55.457Z,94619.66
2023-05-19T15:29:21.937Z,94625.19
2023-05-19T15:31:48.951Z,94617.63
2023-05-19T15:34:15.555Z,94622.72
2023-05-19T15:36:42.013Z,94631.78
2023-05-19T15:39:08.722Z,94627.66
2023-05-19T15:41:37.305Z,94638.53
2023-05-19T15:44:03.755Z,94631.16
2023-05-19T15:46:30.234Z,94632.19
2023-05-19T15:48:56.750Z,94633.41
2023-05-19T15:51:23.225Z,94630.53
2023-05-19T15:53:50.290Z,94626.25
2023-05-19T15:56:17.884Z,94626.25
2023-05-19T15:58:44.330Z,94626.47
2023-05-19T16:01:10.775Z,94623.59
2023-05-19T16:03:37.294Z,94619.09
2023-05-19T16:06:03.851Z,94613.53
2023-05-19T16:08:30.819Z,94618.03
2023-05-19T16:10:57.704Z,94619.47
2023-05-19T16:13:24.167Z,94622.13
2023-05-19T16:15:50.662Z,94608.00
2023-05-19T16:18:17.203Z,94619.69
2023-05-19T16:20:43.648Z,94609.84
2023-05-19T16:23:10.095Z,94607.41
2023-05-19T16:25:36.558Z,94613.38
2023-05-19T16:28:03.026Z,94613.97
2023-05-19T16:30:29.463Z,94613.38
2023-05-19T16:32:56.037Z,94613.38
2023-05-19T16:35:22.774Z,94608.44
2023-05-19T16:37:49.264Z,94610.91
2023-05-19T16:40:16.514Z,94608.47
2023-05-19T16:42:45.110Z,94609.06
2023-05-19T16:45:11.571Z,94601.09
2023-05-19T16:47:38.089Z,94602.94
2023-05-19T16:50:04.603Z,94598.00
2023-05-19T16:52:31.097Z,94599.22
2023-05-19T16:54:58.077Z,94603.97
2023-05-19T16:57:24.662Z,94599.47
2023-05-19T16:59:51.243Z,94597.63
2023-05-19T17:02:17.718Z,94605.16
2023-05-19T17:04:44.212Z,94600.03
2023-05-19T17:07:10.686Z,94602.91
2023-05-19T17:09:37.623Z,94598.59
2023-05-19T17:12:04.219Z,94595.09
2023-05-19T17:14:30.705Z,94596.34
2023-05-19T17:16:57.454Z,94599.41
2023-05-19T17:19:24.032Z,94598.81
2023-05-19T17:21:51.569Z,94607.00
2023-05-19T17:24:18.433Z,94602.31
2023-05-19T17:26:45.860Z,94593.88
2023-05-19T17:29:13.351Z,94597.38
2023-05-19T17:31:39.863Z,94599.00
2023-05-19T17:34:06.375Z,94596.97
2023-05-19T17:36:33.126Z,94596.97
2023-05-19T17:38:59.576Z,94595.94
2023-05-19T17:41:26.046Z,94596.13
2023-05-19T17:43:52.551Z,94596.34
2023-05-19T17:46:19.532Z,94592.66
2023-05-19T17:48:47.096Z,94588.34
2023-05-19T17:51:13.708Z,94593.47
2023-05-19T17:53:40.252Z,94589.16
2023-05-19T17:56:06.793Z,94591.63
2023-05-19T17:58:33.502Z,94589.16
2023-05-19T18:00:59.970Z,94589.38
2023-05-19T18:03:26.586Z,94589.59
2023-05-19T18:05:53.131Z,94593.66
2023-05-19T18:08:19.854Z,94597.34
2023-05-19T18:10:46.335Z,94594.25
2023-05-19T18:13:12.769Z,94591.41
2023-05-19T18:15:39.229Z,94591.59
2023-05-19T18:18:05.731Z,94587.09
2023-05-19T18:20:33.089Z,94595.91
2023-05-19T18:23:00.411Z,94592.03
2023-05-19T18:25:26.902Z,94595.50
2023-05-19T18:27:53.928Z,94602.84
2023-05-19T18:30:20.367Z,94599.97
2023-05-19T18:32:46.939Z,94602.63
2023-05-19T18:35:13.479Z,94602.22
2023-05-19T18:37:39.948Z,94604.66
2023-05-19T18:40:06.429Z,94607.31
2023-05-19T18:42:32.895Z,94607.50
2023-05-19T18:44:59.718Z,94608.75
2023-05-19T18:47:26.146Z,94609.56
2023-05-19T18:49:52.896Z,94608.28
2023-05-19T18:52:19.461Z,94607.28
2023-05-19T18:54:45.941Z,94604.81
2023-05-19T18:57:12.685Z,94605.63
2023-05-19T18:59:40.261Z,94598.91
2023-05-19T19:02:06.841Z,94597.03
2023-05-19T19:04:33.368Z,94608.06
2023-05-19T19:06:59.859Z,94598.66
2023-05-19T19:09:26.608Z,94605.81
2023-05-19T19:11:53.191Z,94602.13
2023-05-19T19:14:19.660Z,94610.94
2023-05-19T19:16:46.396Z,94611.94
2023-05-19T19:19:14.109Z,94605.81
2023-05-19T19:21:40.582Z,94605.34
2023-05-19T19:24:07.042Z,94609.41
2023-05-19T19:26:33.502Z,94606.28
2023-05-19T19:28:59.939Z,94608.75
2023-05-19T19:31:26.918Z,94609.97
2023-05-19T19:33:53.420Z,94615.72
2023-05-19T19:36:19.905Z,94614.69
2023-05-19T19:38:46.376Z,94616.38
2023-05-19T19:41:13.253Z,94616.31
2023-05-19T19:43:39.846Z,94620.00
2023-05-19T19:46:06.433Z,94621.03
2023-05-19T19:48:32.939Z,94618.56
2023-05-19T19:50:59.429Z,94621.03
2023-05-19T19:53:25.873Z,94623.44
2023-05-19T19:55:52.810Z,94622.63
2023-05-19T19:58:19.282Z,94622.59
2023-05-19T20:00:45.753Z,94623.19
2023-05-19T20:03:12.285Z,94624.66
2023-05-19T20:05:39.182Z,94627.47
2023-05-19T20:08:05.750Z,94629.31
2023-05-19T20:10:33.558Z,94637.47
2023-05-19T20:13:00.191Z,94630.72
2023-05-19T20:15:26.670Z,94623.56
2023-05-19T20:17:53.197Z,94631.53
2023-05-19T20:20:21.698Z,94635.25
2023-05-19T20:22:48.142Z,94628.09
2023-05-19T20:25:14.568Z,94622.78
2023-05-19T20:27:41.483Z,94623.56
2023-05-19T20:30:07.963Z,94629.88
2023-05-19T20:32:34.594Z,94623.75
2023-05-19T20:35:01.098Z,94622.13
2023-05-19T20:37:27.538Z,94627.44
2023-05-19T20:39:53.998Z,94630.28
2023-05-19T20:42:21.021Z,94623.34
2023-05-19T20:44:49.700Z,94624.75
2023-05-19T20:47:16.136Z,94625.56
2023-05-19T20:49:42.580Z,94631.06
2023-05-19T20:52:09.102Z,94627.22
2023-05-19T20:54:35.558Z,94617.78
2023-05-19T20:57:02.052Z,94625.16
2023-05-19T20:59:29.135Z,94622.69
2023-05-19T21:01:55.625Z,94616.97
2023-05-19T21:04:23.442Z,94621.22
2023-05-19T21:06:49.957Z,94624.28
2023-05-19T21:09:16.447Z,94614.06
2023-05-19T21:11:42.885Z,94617.94
2023-05-19T21:14:09.380Z,94609.78
2023-05-19T21:16:36.308Z,94614.47
2023-05-19T21:19:03.947Z,94609.13
2023-05-19T21:21:30.530Z,94606.84
2023-05-19T21:23:57.046Z,94608.63
2023-05-19T21:26:24.682Z,94608.63
2023-05-19T21:28:51.124Z,94612.75
2023-05-19T21:31:17.991Z,94610.31
2023-05-19T21:33:45.466Z,94613.75
2023-05-19T21:36:11.940Z,94611.25
2023-05-19T21:38:38.417Z,94606.94
2023-05-19T21:41:04.868Z,94608.97
2023-05-19T21:43:31.324Z,94602.41
2023-05-19T21:45:57.801Z,94595.88
2023-05-19T21:48:24.334Z,94601.78
2023-05-19T21:50:50.884Z,94595.63
2023-05-19T21:53:18.176Z,94600.72
2023-05-19T21:55:44.778Z,94603.38
2023-05-19T21:58:11.245Z,94602.13
2023-05-19T22:00:39.015Z,94595.63
2023-05-19T22:03:07.824Z,94598.50
2023-05-19T22:05:35.343Z,94596.28
2023-05-19T22:08:01.931Z,94592.63
2023-05-19T22:10:28.400Z,94593.81
2023-05-19T22:12:55.142Z,94597.47
2023-05-19T22:15:22.573Z,94587.69
2023-05-19T22:17:49.063Z,94591.16
2023-05-19T22:20:15.521Z,94595.47
2023-05-19T22:22:41.990Z,94593.81
2023-05-19T22:25:08.448Z,94597.28
2023-05-19T22:27:35.494Z,94593.38
2023-05-19T22:30:02.108Z,94589.91
2023-05-19T22:32:28.587Z,94587.66
2023-05-19T22:34:55.110Z,94586.84
2023-05-19T22:37:21.832Z,94582.06
2023-05-19T22:39:48.325Z,94577.16
2023-05-19T22:42:14.799Z,94577.81
2023-05-19T22:44:41.229Z,94580.25
2023-05-19T22:47:07.669Z,94575.75
2023-05-19T22:49:34.182Z,94579.41
2023-05-19T22:52:00.629Z,94568.63
2023-05-19T22:54:27.977Z,94574.09
2023-05-19T22:56:54.429Z,94572.28
2023-05-19T22:59:20.910Z,94571.66
2023-05-19T23:01:47.407Z,94572.50
2023-05-19T23:04:14.023Z,94571.84
2023-05-19T23:06:40.878Z,94570.41
2023-05-19T23:09:07.370Z,94575.34
2023-05-19T23:11:33.786Z,94564.72
2023-05-19T23:14:00.292Z,94556.94
2023-05-19T23:16:26.775Z,94561.88
2023-05-19T23:18:53.297Z,94561.66
2023-05-19T23:21:19.774Z,94557.00
2023-05-19T23:23:47.026Z,94560.28
2023-05-19T23:26:13.550Z,94552.69
2023-05-19T23:28:40.110Z,94548.59
2023-05-19T23:31:07.849Z,94550.81
2023-05-19T23:33:35.387Z,94548.38
2023-05-19T23:36:03.990Z,94551.03
2023-05-19T23:38:30.577Z,94550.81
2023-05-19T23:40:57.045Z,94543.44
2023-05-19T23:43:23.784Z,94546.47
2023-05-19T23:45:50.362Z,94543.97
2023-05-19T23:48:16.822Z,94537.25
2023-05-19T23:50:43.569Z,94541.84
2023-05-19T23:53:10.157Z,94539.00
2023-05-19T23:55:38.752Z,94538.84
2023-05-19T23:58:06.351Z,94538.41
